Time;durP1;ratioP1;P1;durP2;ratioP2;P2;SDS_P1;SDS_P2;PMS_P1;PMS_P2;Temp;Humidity;BMP_temperature;BMP_pressure;BME280_temperature;BME280_humidity;BME280_pressure;Samples;Min_cycle;Max_cycle;Signal;HPM_P1;HPM_P2
2022/09/06 00:00:31;;;;;;;;;;;20.30;95.00;;;;;;4921526;29;20060;-93
2022/09/06 00:03:34;;;;;;;7.40;3.85;;;20.20;94.90;;;;;;4933330;29;19993;-93
2022/09/06 00:06:31;;;;;;;10.05;4.30;;;20.20;94.80;;;;;;4927514;29;20129;-93
2022/09/06 00:08:56;;;;;;;6.15;3.95;;;20.20;94.90;;;;;;4960664;28;20048;-93
2022/09/06 00:11:27;;;;;;;7.88;4.18;;;20.20;94.90;;;;;;4923717;29;20106;-93
2022/09/06 00:14:16;;;;;;;11.18;4.88;;;20.10;94.90;;;;;;4943242;29;20072;-92
2022/09/06 00:16:47;;;;;;;6.38;4.03;;;20.10;94.90;;;;;;4940636;29;20084;-93
2022/09/06 00:19:13;;;;;;;7.30;4.32;;;20.10;95.00;;;;;;4939853;29;20044;-92
2022/09/06 00:21:39;;;;;;;6.43;3.67;;;20.00;94.90;;;;;;4916288;29;20142;-93
2022/09/06 00:24:11;;;;;;;9.13;4.38;;;20.00;95.00;;;;;;4919910;29;20044;-94
2022/09/06 00:26:37;;;;;;;6.78;4.65;;;19.90;95.00;;;;;;4949508;29;20047;-94
2022/09/06 00:29:08;;;;;;;6.15;4.18;;;19.90;95.10;;;;;;4929757;29;20054;-94
2022/09/06 00:31:34;;;;;;;6.30;4.40;;;19.90;95.10;;;;;;4940935;29;20047;-93
2022/09/06 00:34:00;;;;;;;8.68;4.88;;;19.90;95.20;;;;;;4917097;29;20113;-92
2022/09/06 00:36:26;;;;;;;5.72;4.45;;;19.80;95.20;;;;;;4930889;29;20084;-92
2022/09/06 00:38:51;;;;;;;8.15;4.40;;;20.40;95.40;;;;;;4944195;29;20052;-93
2022/09/06 00:41:23;;;;;;;7.95;4.38;;;19.70;95.20;;;;;;4924363;29;20040;-93
2022/09/06 00:43:53;;;;;;;5.72;4.07;;;19.70;95.20;;;;;;4940911;29;20224;-93
2022/09/06 00:46:26;;;;;;;6.95;4.50;;;20.10;95.30;;;;;;4912191;29;20048;-93
2022/09/06 00:49:34;;;;;;;6.78;4.38;;;19.70;95.30;;;;;;4950210;29;20130;-92
2022/09/06 00:52:04;;;;;;;8.45;4.63;;;19.60;95.40;;;;;;4925857;29;20123;-92
2022/09/06 00:54:46;;;;;;;10.95;4.72;;;19.60;95.40;;;;;;4940349;29;20056;-93
2022/09/06 00:57:25;;;;;;;6.70;4.65;;;19.60;95.50;;;;;;4940168;29;20044;-93
2022/09/06 00:59:55;;;;;;;8.18;4.80;;;19.60;95.50;;;;;;4934320;29;20044;-93
2022/09/06 01:02:27;;;;;;;7.85;5.00;;;19.50;95.60;;;;;;4926307;29;20075;-92
2022/09/06 01:05:01;;;;;;;9.70;4.20;;;19.00;95.60;;;;;;4923940;29;20051;-93
2022/09/06 01:08:09;;;;;;;7.57;4.78;;;19.90;95.90;;;;;;4905125;29;20040;-93
2022/09/06 01:11:13;;;;;;;8.23;4.25;;;19.50;96.10;;;;;;4926863;29;20051;-94
2022/09/06 01:14:36;;;;;;;7.60;4.63;;;19.40;96.10;;;;;;4888075;29;20149;-93
2022/09/06 01:17:29;;;;;;;8.07;4.70;;;19.40;95.90;;;;;;4850622;29;20053;-93
2022/09/06 01:20:48;;;;;;;7.75;4.57;;;19.40;96.00;;;;;;4882082;29;20093;-93
2022/09/06 01:23:58;;;;;;;8.10;4.65;;;19.40;96.20;;;;;;4851714;29;20160;-93
2022/09/06 01:26:52;;;;;;;7.22;4.78;;;19.30;96.20;;;;;;4873514;29;20056;-93
2022/09/06 01:29:30;;;;;;;6.32;4.30;;;19.30;96.20;;;;;;4855279;29;20087;-92
2022/09/06 01:32:26;;;;;;;9.23;4.97;;;19.10;96.20;;;;;;4858100;29;20048;-93
2022/09/06 01:35:27;;;;;;;7.85;4.70;;;19.30;96.10;;;;;;4875212;29;20066;-94
2022/09/06 01:38:16;;;;;;;5.93;4.55;;;19.30;96.20;;;;;;4853103;29;20240;-93
2022/09/06 01:40:42;;;;;;;7.13;5.00;;;19.30;96.20;;;;;;4850802;29;20054;-93
2022/09/06 01:43:29;;;;;;;6.50;4.50;;;19.70;96.50;;;;;;4874466;29;20053;-94
2022/09/06 01:46:24;;;;;;;7.47;4.22;;;19.30;96.30;;;;;;4872228;29;20041;-93
2022/09/06 01:48:52;;;;;;;5.95;4.68;;;19.30;96.50;;;;;;4871594;29;20044;-93
2022/09/06 01:51:44;;;;;;;6.95;4.63;;;19.20;96.30;;;;;;4932224;29;20058;-92
2022/09/06 01:54:32;;;;;;;7.07;4.50;;;19.20;96.60;;;;;;4909602;29;20051;-94
2022/09/06 01:57:32;;;;;;;9.50;5.05;;;19.40;96.50;;;;;;4955887;29;20056;-93
2022/09/06 02:00:11;;;;;;;9.93;4.97;;;19.20;96.40;;;;;;4940224;29;20044;-93
2022/09/06 02:03:14;;;;;;;5.75;4.10;;;19.20;96.30;;;;;;4923856;29;20125;-93
2022/09/06 02:05:56;;;;;;;7.68;4.57;;;19.20;96.50;;;;;;4945146;29;20131;-93
2022/09/06 02:08:52;;;;;;;7.78;4.63;;;19.20;96.30;;;;;;4916309;29;20083;-93
2022/09/06 02:11:25;;;;;;;6.85;4.38;;;19.10;96.30;;;;;;4940437;29;20574;-95
2022/09/06 02:13:55;;;;;;;7.93;4.50;;;19.20;96.50;;;;;;4926758;29;20044;-94
2022/09/06 02:16:27;;;;;;;6.47;4.90;;;19.10;96.50;;;;;;4943534;29;20146;-94
2022/09/06 02:19:14;;;;;;;7.30;5.20;;;19.10;96.40;;;;;;4955490;29;20047;-94
2022/09/06 02:21:46;;;;;;;8.70;5.10;;;19.10;96.40;;;;;;4944017;29;20044;-92
2022/09/06 02:24:46;;;;;;;8.60;4.97;;;19.10;96.50;;;;;;4928699;29;20390;-93
2022/09/06 02:27:26;;;;;;;6.60;4.95;;;19.10;96.50;;;;;;4953267;29;20055;-93
2022/09/06 02:29:52;;;;;;;8.52;5.00;;;19.10;96.60;;;;;;4945274;29;20043;-92
2022/09/06 02:32:27;;;;;;;5.60;4.30;;;19.00;96.50;;;;;;4945200;29;20103;-93
2022/09/06 02:35:04;;;;;;;8.32;4.88;;;18.90;96.50;;;;;;4929576;29;20046;-92
2022/09/06 02:38:06;;;;;;;6.63;4.70;;;19.00;96.60;;;;;;4904709;29;20051;-94
2022/09/06 02:40:32;;;;;;;7.57;4.60;;;19.00;96.50;;;;;;4936877;29;20075;-93
2022/09/06 02:42:58;;;;;;;8.13;5.03;;;19.00;96.60;;;;;;4928156;29;20055;-93
2022/09/06 02:45:27;;;;;;;9.77;4.85;;;19.60;96.70;;;;;;4927986;29;20107;-92
2022/09/06 02:47:55;;;;;;;7.68;5.10;;;19.20;96.60;;;;;;4927722;29;20043;-93
2022/09/06 02:50:21;;;;;;;6.93;5.25;;;19.00;96.50;;;;;;4923307;29;20513;-93
2022/09/06 02:53:25;;;;;;;6.82;5.07;;;19.00;96.60;;;;;;4943150;29;20860;-94
2022/09/06 02:56:11;;;;;;;6.85;5.03;;;18.90;96.80;;;;;;4923663;29;20035;-94
2022/09/06 02:59:20;;;;;;;7.05;5.30;;;18.90;96.70;;;;;;4942449;29;20075;-92
2022/09/06 03:01:52;;;;;;;7.47;4.80;;;19.10;96.80;;;;;;4936832;29;20052;-95
2022/09/06 03:04:34;;;;;;;6.80;5.10;;;18.70;96.70;;;;;;4946240;29;20048;-94
2022/09/06 03:07:08;;;;;;;7.90;5.35;;;18.60;97.10;;;;;;4922719;29;20591;-94
2022/09/06 03:09:47;;;;;;;7.05;5.20;;;18.80;97.00;;;;;;4943550;29;20044;-93
2022/09/06 03:12:22;;;;;;;6.75;5.35;;;18.80;96.90;;;;;;4944864;29;20103;-93
2022/09/06 03:14:48;;;;;;;8.80;5.28;;;19.10;97.00;;;;;;4958379;29;20460;-93
2022/09/06 03:17:13;;;;;;;7.80;4.97;;;18.80;96.90;;;;;;4910350;29;20064;-94
2022/09/06 03:19:51;;;;;;;7.60;5.32;;;18.70;96.90;;;;;;4946318;29;20056;-93
2022/09/06 03:22:41;;;;;;;6.57;5.07;;;18.60;96.90;;;;;;4945712;29;20381;-93
2022/09/06 03:25:24;;;;;;;9.20;5.38;;;19.30;97.10;;;;;;4951020;29;20047;-92
2022/09/06 03:28:06;;;;;;;7.10;4.80;;;18.70;97.00;;;;;;4923648;29;20048;-93
2022/09/06 03:30:35;;;;;;;9.82;5.55;;;18.30;96.90;;;;;;4953854;29;20123;-93
2022/09/06 03:33:04;;;;;;;7.60;5.63;;;18.70;97.00;;;;;;4923455;29;20048;-93
2022/09/06 03:35:30;;;;;;;7.88;5.43;;;18.70;97.00;;;;;;4931169;29;20043;-94
2022/09/06 03:37:58;;;;;;;8.18;5.68;;;18.90;97.20;;;;;;4943005;29;20138;-93
2022/09/06 03:40:24;;;;;;;7.65;5.50;;;18.70;97.10;;;;;;4929071;29;20036;-92
2022/09/06 03:43:05;;;;;;;6.57;5.35;;;18.60;97.50;;;;;;4941015;29;20115;-93
2022/09/06 03:45:31;;;;;;;11.23;5.32;;;18.70;97.40;;;;;;4958978;28;20027;-93
2022/09/06 03:48:00;;;;;;;8.02;5.70;;;19.10;97.40;;;;;;4957324;28;20048;-92
2022/09/06 03:50:29;;;;;;;10.10;6.38;;;18.60;97.30;;;;;;4943274;29;20067;-93
2022/09/06 03:56:01;;;;;;;7.60;5.55;;;18.60;97.20;;;;;;4958672;29;20104;-93
2022/09/06 03:58:33;;;;;;;9.10;5.80;;;18.60;97.30;;;;;;4938871;29;20054;-94
2022/09/06 04:01:10;;;;;;;7.53;5.70;;;18.60;97.40;;;;;;4936433;29;20091;-93
2022/09/06 04:03:39;;;;;;;7.55;5.60;;;18.60;97.40;;;;;;4918789;29;20052;-93
2022/09/06 04:06:14;;;;;;;7.72;5.32;;;18.50;97.40;;;;;;4935296;29;20087;-92
2022/09/06 04:08:46;;;;;;;8.05;5.53;;;18.60;97.40;;;;;;4921539;29;20128;-92
2022/09/06 04:11:12;;;;;;;6.93;6.20;;;18.60;97.50;;;;;;4939057;29;20103;-92
2022/09/06 04:13:41;;;;;;;9.90;6.50;;;19.00;97.60;;;;;;4913278;29;20079;-93
2022/09/06 04:16:07;;;;;;;10.27;5.90;;;18.60;97.50;;;;;;4959255;28;20039;-93
2022/09/06 04:18:36;;;;;;;9.43;6.32;;;19.10;97.70;;;;;;4939245;29;20085;-93
2022/09/06 04:21:02;;;;;;;9.50;6.28;;;18.60;97.60;;;;;;4909385;29;20060;-93
2022/09/06 04:23:31;;;;;;;8.98;6.35;;;18.70;97.60;;;;;;4921037;29;20051;-95
2022/09/06 04:25:58;;;;;;;9.40;6.38;;;19.00;97.70;;;;;;4942068;29;20091;-95
2022/09/06 04:28:25;;;;;;;9.40;6.10;;;18.60;97.70;;;;;;4948452;29;20048;-93
2022/09/06 04:31:19;;;;;;;7.95;5.93;;;18.90;97.80;;;;;;4945285;29;20051;-94
2022/09/06 04:33:45;;;;;;;8.80;6.00;;;18.60;97.80;;;;;;4945263;29;20047;-94
2022/09/06 04:36:11;;;;;;;8.50;6.70;;;18.50;97.90;;;;;;4944886;29;20074;-93
2022/09/06 04:38:40;;;;;;;9.40;6.82;;;18.60;98.00;;;;;;4937391;29;20055;-93
2022/09/06 04:41:11;;;;;;;7.80;6.20;;;18.50;98.00;;;;;;4948555;28;20146;-94
2022/09/06 04:43:37;;;;;;;8.52;6.35;;;18.50;98.10;;;;;;4945662;29;20064;-93
2022/09/06 04:46:25;;;;;;;9.90;6.10;;;18.50;98.30;;;;;;4925978;29;20121;-95
2022/09/06 04:48:52;;;;;;;7.85;6.22;;;18.50;98.30;;;;;;4926888;29;20079;-93
2022/09/06 04:51:19;;;;;;;11.63;7.38;;;18.90;98.40;;;;;;4935793;29;20039;-94
2022/09/06 04:53:54;;;;;;;11.98;6.85;;;18.60;98.50;;;;;;4947312;29;20050;-94
2022/09/06 04:56:22;;;;;;;10.57;7.03;;;18.60;98.70;;;;;;4933330;29;20044;-95
2022/09/06 04:58:49;;;;;;;9.40;6.65;;;18.50;98.80;;;;;;4942252;29;20056;-94
2022/09/06 05:01:20;;;;;;;9.80;7.30;;;18.60;99.00;;;;;;4957065;28;20380;-93
2022/09/06 05:04:07;;;;;;;10.35;7.00;;;18.50;99.10;;;;;;4967095;28;20047;-93
2022/09/06 05:06:38;;;;;;;9.30;7.28;;;18.50;99.60;;;;;;4931261;29;20444;-92
2022/09/06 05:09:03;;;;;;;10.60;7.38;;;18.50;99.80;;;;;;4942304;29;20107;-94
2022/09/06 05:11:33;;;;;;;9.10;7.03;;;18.50;99.90;;;;;;4948008;29;20078;-94
2022/09/06 05:13:59;;;;;;;9.75;7.20;;;18.50;99.90;;;;;;4922904;29;20307;-94
2022/09/06 05:16:51;;;;;;;10.75;7.82;;;18.40;99.90;;;;;;4926507;29;20087;-94
2022/09/06 05:19:25;;;;;;;8.35;6.85;;;18.40;99.90;;;;;;4931039;29;20044;-95
2022/09/06 05:21:56;;;;;;;13.18;7.90;;;18.40;99.90;;;;;;4911741;29;20567;-93
2022/09/06 05:24:24;;;;;;;11.55;8.32;;;18.40;99.90;;;;;;4936647;29;20043;-93
2022/09/06 05:26:50;;;;;;;11.85;7.60;;;18.40;99.90;;;;;;4925118;29;20062;-91
2022/09/06 05:29:18;;;;;;;12.38;8.50;;;18.40;99.90;;;;;;4904991;29;20044;-93
2022/09/06 05:31:44;;;;;;;11.90;7.78;;;18.50;99.90;;;;;;4927224;29;20055;-92
2022/09/06 05:34:13;;;;;;;9.25;8.25;;;18.40;99.90;;;;;;4935366;29;20119;-92
2022/09/06 05:36:40;;;;;;;10.52;8.25;;;18.40;99.90;;;;;;4934425;29;20047;-93
2022/09/06 05:39:07;;;;;;;11.48;8.10;;;18.40;99.90;;;;;;4911482;29;20099;-93
2022/09/06 05:41:43;;;;;;;14.63;8.38;;;18.70;99.90;;;;;;4927568;29;20037;-92
2022/09/06 05:44:08;;;;;;;10.80;8.43;;;18.40;99.90;;;;;;4934944;29;20051;-92
2022/09/06 05:46:46;;;;;;;10.50;7.93;;;18.40;99.90;;;;;;4925697;29;20044;-90
2022/09/06 05:49:15;;;;;;;10.40;8.70;;;18.40;99.90;;;;;;4933354;29;20067;-95
2022/09/06 05:51:41;;;;;;;10.57;8.10;;;18.30;99.90;;;;;;4935941;29;20048;-92
2022/09/06 05:54:09;;;;;;;9.48;8.13;;;18.30;99.90;;;;;;4907377;29;20072;-91
2022/09/06 05:56:34;;;;;;;10.23;8.45;;;18.30;99.90;;;;;;4940065;29;20052;-92
2022/09/06 05:59:00;;;;;;;9.05;7.72;;;18.30;99.90;;;;;;4927752;29;20388;-93
2022/09/06 06:01:29;;;;;;;9.90;8.43;;;18.30;99.90;;;;;;4912466;29;20090;-91
2022/09/06 06:04:00;;;;;;;11.75;8.43;;;18.30;99.90;;;;;;4915330;29;20045;-91
2022/09/06 06:06:29;;;;;;;10.23;8.23;;;18.40;99.90;;;;;;4930187;29;20136;-92
2022/09/06 06:08:58;;;;;;;9.23;8.23;;;18.30;99.90;;;;;;4907085;29;20458;-93
2022/09/06 06:11:25;;;;;;;10.98;7.82;;;18.40;99.90;;;;;;4940418;29;20048;-93
2022/09/06 06:13:52;;;;;;;9.45;8.45;;;18.40;99.90;;;;;;4927126;29;20048;-91
2022/09/06 06:16:20;;;;;;;11.63;8.32;;;18.50;99.90;;;;;;4921317;29;20044;-94
2022/09/06 06:18:46;;;;;;;9.77;8.77;;;18.50;99.90;;;;;;4892754;29;20131;-95
2022/09/06 06:21:14;;;;;;;10.63;8.13;;;18.50;99.90;;;;;;4931218;29;20064;-90
2022/09/06 06:23:43;;;;;;;10.07;8.98;;;18.50;99.90;;;;;;4948719;29;20044;-95
2022/09/06 06:26:09;;;;;;;10.57;8.70;;;18.50;99.90;;;;;;4934463;29;20048;-95
2022/09/06 06:28:36;;;;;;;10.65;9.40;;;18.50;99.90;;;;;;4925397;29;20028;-95
2022/09/06 06:31:05;;;;;;;10.98;8.95;;;18.60;99.90;;;;;;4941385;29;20039;-94
2022/09/06 06:33:36;;;;;;;11.25;9.65;;;18.60;99.90;;;;;;4937460;29;20036;-95
2022/09/06 06:36:17;;;;;;;14.98;9.82;;;18.60;99.90;;;;;;4910263;29;20085;-94
2022/09/06 06:38:44;;;;;;;12.93;9.25;;;18.60;99.90;;;;;;4931981;29;20048;-95
2022/09/06 06:41:31;;;;;;;13.38;9.00;;;18.70;99.90;;;;;;4931788;29;20041;-94
2022/09/06 06:44:09;;;;;;;12.27;9.13;;;18.70;99.90;;;;;;4923881;29;20044;-95
2022/09/06 06:46:40;;;;;;;11.55;9.95;;;18.70;99.90;;;;;;4959315;29;20067;-94
2022/09/06 06:49:13;;;;;;;14.02;9.63;;;18.70;99.90;;;;;;4953445;29;20068;-95
2022/09/06 06:51:40;;;;;;;11.35;10.05;;;18.70;99.90;;;;;;4934401;29;20051;-95
2022/09/06 06:54:05;;;;;;;12.13;9.80;;;18.70;99.90;;;;;;4898856;29;20067;-94
2022/09/06 06:56:34;;;;;;;10.77;9.25;;;18.70;99.90;;;;;;4931162;29;20096;-91
2022/09/06 06:59:06;;;;;;;11.48;10.13;;;18.70;99.90;;;;;;4930240;29;20055;-94
2022/09/06 07:01:33;;;;;;;12.75;10.10;;;18.70;99.90;;;;;;4921295;29;20053;-94
2022/09/06 07:04:03;;;;;;;14.02;9.63;;;18.70;99.90;;;;;;4908697;29;20096;-95
2022/09/06 07:06:30;;;;;;;13.32;9.60;;;18.70;99.90;;;;;;4917902;29;20092;-94
2022/09/06 07:08:59;;;;;;;12.65;9.68;;;18.70;99.90;;;;;;4935513;29;20062;-94
2022/09/06 07:11:25;;;;;;;15.55;10.65;;;18.70;99.90;;;;;;4942757;29;20056;-95
2022/09/06 07:13:51;;;;;;;12.40;10.05;;;18.70;99.90;;;;;;4941419;29;20404;-94
2022/09/06 07:16:21;;;;;;;11.60;10.13;;;18.70;99.90;;;;;;4920706;29;20050;-95
2022/09/06 07:18:51;;;;;;;12.75;9.95;;;18.80;99.90;;;;;;4920826;29;20052;-95
2022/09/06 07:21:25;;;;;;;13.82;10.88;;;18.80;99.90;;;;;;4909043;29;20044;-95
2022/09/06 07:23:51;;;;;;;12.03;10.37;;;18.80;99.90;;;;;;4931850;29;20044;-93
2022/09/06 07:26:19;;;;;;;12.32;11.02;;;18.90;99.90;;;;;;4941620;29;20052;-96
2022/09/06 07:28:45;;;;;;;15.65;11.00;;;19.00;99.90;;;;;;4920577;29;20052;-95
2022/09/06 07:31:11;;;;;;;21.02;10.50;;;19.10;99.90;;;;;;4924895;29;20052;-96
2022/09/06 07:33:46;;;;;;;15.88;12.05;;;19.40;99.90;;;;;;4904670;29;20040;-95
2022/09/06 07:36:12;;;;;;;16.15;11.02;;;19.30;99.90;;;;;;4931433;29;20092;-94
2022/09/06 07:38:37;;;;;;;13.88;10.85;;;19.40;99.90;;;;;;4912128;29;20108;-95
2022/09/06 07:41:06;;;;;;;15.63;10.55;;;19.50;99.90;;;;;;4914419;29;20047;-95
2022/09/06 07:43:32;;;;;;;13.65;11.18;;;19.60;99.90;;;;;;4918357;29;20539;-95
2022/09/06 07:46:06;;;;;;;27.55;11.80;;;19.60;99.90;;;;;;4890868;29;20084;-94
2022/09/06 07:48:33;;;;;;;13.88;12.07;;;19.70;99.90;;;;;;4919448;29;20041;-95
2022/09/06 07:51:19;;;;;;;14.35;11.43;;;19.70;99.90;;;;;;4922506;29;20104;-95
2022/09/06 07:53:54;;;;;;;14.82;12.18;;;19.80;99.90;;;;;;4929971;29;20131;-95
2022/09/06 07:56:21;;;;;;;14.25;12.32;;;19.80;99.90;;;;;;4921973;29;20079;-96
2022/09/06 07:58:48;;;;;;;19.23;11.95;;;19.90;99.90;;;;;;4916674;29;20087;-95
2022/09/06 08:01:29;;;;;;;14.63;12.02;;;19.90;99.90;;;;;;4921562;29;20063;-96
2022/09/06 08:04:11;;;;;;;15.07;12.27;;;19.90;99.90;;;;;;4943121;29;20134;-94
2022/09/06 08:06:40;;;;;;;14.15;12.57;;;19.90;99.90;;;;;;4931660;29;20044;-95
2022/09/06 08:09:10;;;;;;;13.85;12.35;;;19.90;99.90;;;;;;4930030;29;20044;-94
2022/09/06 08:11:37;;;;;;;14.75;12.73;;;19.90;99.90;;;;;;4930720;29;20514;-94
2022/09/06 08:14:05;;;;;;;14.82;12.50;;;20.00;99.90;;;;;;4939675;29;20438;-95
2022/09/06 08:16:32;;;;;;;13.98;12.43;;;20.00;99.90;;;;;;4936752;29;20048;-94
2022/09/06 08:19:00;;;;;;;14.15;12.30;;;20.00;99.90;;;;;;4912797;29;20052;-94
2022/09/06 08:21:28;;;;;;;15.63;12.95;;;20.10;99.90;;;;;;4927819;29;20055;-95
2022/09/06 08:24:14;;;;;;;14.80;12.50;;;20.10;99.90;;;;;;4931864;29;20047;-95
2022/09/06 08:26:43;;;;;;;14.10;11.75;;;20.10;99.90;;;;;;4910083;29;20064;-94
2022/09/06 08:29:09;;;;;;;15.10;11.45;;;20.10;99.90;;;;;;4937911;29;20081;-96
2022/09/06 08:31:39;;;;;;;16.27;11.88;;;20.00;99.90;;;;;;4941996;29;20039;-95
2022/09/06 08:34:05;;;;;;;14.20;12.07;;;20.00;99.90;;;;;;4922946;29;20508;-95
2022/09/06 08:36:31;;;;;;;18.23;12.55;;;20.00;99.90;;;;;;4914865;29;20047;-96
2022/09/06 08:38:58;;;;;;;15.18;12.43;;;20.10;99.90;;;;;;4926207;29;20440;-94
2022/09/06 08:41:54;;;;;;;15.55;11.75;;;20.20;99.90;;;;;;4958380;29;20124;-94
2022/09/06 08:44:28;;;;;;;17.08;12.15;;;20.30;99.90;;;;;;4925622;29;20126;-94
2022/09/06 08:46:54;;;;;;;;;;;20.40;99.90;;;;;;4939023;29;20216;-95
2022/09/06 08:49:20;;;;;;;16.45;12.27;;;20.50;99.90;;;;;;4938316;29;19923;-96
2022/09/06 08:52:04;;;;;;;15.18;11.80;;;20.70;99.90;;;;;;4924841;29;20048;-95
2022/09/06 08:54:38;;;;;;;13.90;11.35;;;20.70;99.90;;;;;;4926347;29;20047;-95
2022/09/06 08:57:42;;;;;;;13.70;12.07;;;20.90;99.90;;;;;;4952323;29;20067;-96
2022/09/06 09:00:12;;;;;;;12.48;10.48;;;21.00;99.90;;;;;;4919152;29;20759;-95
2022/09/06 09:02:55;;;;;;;15.32;11.18;;;21.20;99.90;;;;;;4938774;29;20048;-94
2022/09/06 09:05:29;;;;;;;16.77;11.50;;;21.30;99.90;;;;;;4928244;29;20124;-94
2022/09/06 09:08:24;;;;;;;13.35;10.98;;;21.50;99.90;;;;;;4918879;29;20059;-94
2022/09/06 09:10:58;;;;;;;13.43;10.38;;;21.70;99.90;;;;;;4920062;29;20047;-94
2022/09/06 09:13:46;;;;;;;17.27;10.48;;;21.90;99.90;;;;;;4948741;29;20058;-95
2022/09/06 09:16:13;;;;;;;14.20;9.77;;;22.20;99.90;;;;;;4922609;29;20052;-95
2022/09/06 09:18:43;;;;;;;12.77;8.80;;;22.50;99.90;;;;;;4932234;29;20500;-95
2022/09/06 09:21:10;;;;;;;10.15;8.70;;;22.70;99.10;;;;;;4938082;29;20111;-95
2022/09/06 09:23:36;;;;;;;12.00;8.82;;;22.90;98.70;;;;;;4937439;29;20096;-95
2022/09/06 09:26:09;;;;;;;15.05;8.93;;;23.10;98.40;;;;;;4958521;29;20044;-96
2022/09/06 09:28:35;;;;;;;11.73;7.40;;;23.40;97.90;;;;;;4932964;29;20557;-94
2022/09/06 09:31:01;;;;;;;10.55;7.85;;;23.50;97.70;;;;;;4939578;29;20131;-94
2022/09/06 09:33:33;;;;;;;9.80;7.38;;;23.70;97.40;;;;;;4927410;29;20050;-94
2022/09/06 09:36:06;;;;;;;10.98;7.43;;;23.90;97.30;;;;;;4965304;29;20119;-96
2022/09/06 09:38:51;;;;;;;10.40;7.47;;;24.00;96.80;;;;;;4940017;29;20046;-93
2022/09/06 09:41:30;;;;;;;11.68;8.10;;;24.20;96.60;;;;;;4955604;29;20174;-94
2022/09/06 09:44:01;;;;;;;10.30;6.90;;;24.30;96.40;;;;;;4948033;29;20047;-94
2022/09/06 09:46:31;;;;;;;10.65;7.10;;;24.40;96.40;;;;;;4923192;29;20048;-95
2022/09/06 09:49:26;;;;;;;11.95;7.70;;;24.60;96.10;;;;;;4931874;29;20052;-95
2022/09/06 09:52:06;;;;;;;;;;;24.70;95.30;;;;;;4959461;29;20070;-93
2022/09/06 09:54:43;;;;;;;10.55;7.75;;;24.80;95.00;;;;;;4945795;29;19947;-94
2022/09/06 09:57:15;;;;;;;10.75;8.40;;;24.70;95.00;;;;;;4958204;29;20056;-94
2022/09/06 09:59:51;;;;;;;11.55;7.40;;;24.90;95.40;;;;;;4926229;29;20056;-95
2022/09/06 10:02:24;;;;;;;11.45;8.68;;;25.00;95.20;;;;;;4943215;29;20047;-95
2022/09/06 10:05:01;;;;;;;10.02;8.45;;;25.00;95.20;;;;;;4941894;29;20047;-96
2022/09/06 10:07:27;;;;;;;11.43;7.90;;;25.10;94.60;;;;;;4957443;29;20050;-95
2022/09/06 10:10:03;;;;;;;9.90;6.95;;;25.20;95.10;;;;;;4952904;29;20480;-94
2022/09/06 10:12:31;;;;;;;11.27;7.63;;;25.30;94.60;;;;;;4925510;29;20551;-94
2022/09/06 10:15:01;;;;;;;13.32;7.88;;;25.40;94.80;;;;;;4951447;29;20080;-96
2022/09/06 10:17:30;;;;;;;10.65;8.27;;;25.50;94.50;;;;;;4941596;29;20079;-93
2022/09/06 10:20:02;;;;;;;12.00;8.25;;;25.60;94.50;;;;;;4951158;29;20060;-95
2022/09/06 10:22:38;;;;;;;10.50;8.30;;;25.60;94.30;;;;;;4931597;29;20113;-93
2022/09/06 10:25:16;;;;;;;17.55;10.45;;;25.70;94.60;;;;;;4915016;29;20055;-95
2022/09/06 10:28:06;;;;;;;11.60;8.75;;;25.80;93.70;;;;;;4955889;29;20094;-93
2022/09/06 10:30:37;;;;;;;11.65;8.98;;;25.90;93.60;;;;;;4956099;29;20054;-94
2022/09/06 10:33:30;;;;;;;11.55;9.75;;;26.00;93.70;;;;;;4924519;29;20072;-92
2022/09/06 10:35:57;;;;;;;11.18;9.35;;;26.00;93.20;;;;;;4936186;29;20388;-93
2022/09/06 10:38:35;;;;;;;12.55;8.60;;;26.10;93.50;;;;;;4936453;29;20090;-95
2022/09/06 10:41:21;;;;;;;14.10;9.10;;;26.20;93.10;;;;;;4913222;29;20052;-95
2022/09/06 10:44:35;;;;;;;13.52;10.13;;;26.20;93.30;;;;;;4933727;29;20080;-95
2022/09/06 10:47:22;;;;;;;11.18;9.95;;;26.40;93.00;;;;;;4923782;29;20059;-93
2022/09/06 10:49:54;;;;;;;12.45;9.02;;;26.50;92.70;;;;;;4922865;29;20039;-93
2022/09/06 10:52:37;;;;;;;14.63;9.32;;;26.60;92.70;;;;;;4929830;29;20048;-91
2022/09/06 10:55:10;;;;;;;14.05;9.60;;;26.60;92.50;;;;;;4952100;29;20044;-92
2022/09/06 10:57:42;;;;;;;11.73;9.25;;;26.70;92.90;;;;;;4946702;29;20064;-93
2022/09/06 11:00:13;;;;;;;11.90;7.88;;;26.80;92.90;;;;;;4918590;29;20036;-92
2022/09/06 11:02:48;;;;;;;15.55;9.95;;;26.90;92.90;;;;;;4935535;29;20051;-93
2022/09/06 11:05:27;;;;;;;13.15;8.90;;;26.90;92.30;;;;;;4930755;29;20091;-93
2022/09/06 11:07:59;;;;;;;12.73;9.50;;;27.00;92.20;;;;;;4927227;29;20044;-93
2022/09/06 11:10:37;;;;;;;12.52;7.97;;;27.10;92.40;;;;;;4945549;29;20052;-93
2022/09/06 11:13:21;;;;;;;15.25;7.57;;;27.10;91.70;;;;;;4927602;29;20039;-94
2022/09/06 11:15:53;;;;;;;;;;;27.30;91.70;;;;;;4932412;29;20168;-92
2022/09/06 11:19:01;;;;;;;12.18;7.65;;;27.30;90.70;;;;;;4916312;29;19954;-93
2022/09/06 11:22:04;;;;;;;9.27;7.18;;;27.40;90.70;;;;;;4932091;29;20046;-92
2022/09/06 11:25:10;;;;;;;11.57;6.20;;;27.50;90.70;;;;;;4946536;29;20040;-91
2022/09/06 11:27:44;;;;;;;11.95;5.88;;;27.60;90.40;;;;;;4937482;29;20047;-93
2022/09/06 11:30:16;;;;;;;7.45;5.03;;;27.70;90.40;;;;;;4933530;29;20446;-90
2022/09/06 11:32:47;;;;;;;8.82;5.47;;;27.70;90.00;;;;;;4929311;29;20080;-92
2022/09/06 11:35:31;;;;;;;7.28;5.78;;;27.80;90.10;;;;;;4931825;29;20048;-92
2022/09/06 11:38:15;;;;;;;9.70;5.65;;;27.80;90.30;;;;;;4916946;29;20052;-94
2022/09/06 11:40:49;;;;;;;8.52;5.18;;;27.90;90.00;;;;;;4909684;29;20040;-93
2022/09/06 11:43:48;;;;;;;9.48;5.10;;;28.00;89.90;;;;;;4935413;29;20059;-93
2022/09/06 11:46:52;;;;;;;10.30;5.20;;;28.00;90.00;;;;;;4927058;29;20048;-92
2022/09/06 11:49:46;;;;;;;8.80;5.20;;;28.10;88.20;;;;;;4896541;23;20105;31
2022/09/06 11:53:06;;;;;;;13.73;5.32;;;28.30;89.20;;;;;;4928890;29;20062;-89
2022/09/06 11:55:45;;;;;;;10.02;5.75;;;28.40;88.20;;;;;;4901677;29;20052;-89
2022/09/06 11:58:27;;;;;;;9.93;4.82;;;28.50;87.00;;;;;;4906009;29;20075;-89
2022/09/06 12:01:11;;;;;;;9.27;5.85;;;28.50;87.80;;;;;;4921321;29;20066;-89
2022/09/06 12:03:46;;;;;;;9.95;5.18;;;28.60;87.00;;;;;;4899452;29;20044;-90
2022/09/06 12:06:38;;;;;;;6.47;4.68;;;28.70;88.10;;;;;;4914321;29;20163;-89
2022/09/06 12:09:26;;;;;;;6.35;4.55;;;28.80;87.40;;;;;;4923005;29;20060;-89
2022/09/06 12:11:56;;;;;;;7.43;4.80;;;28.90;86.40;;;;;;4881699;29;20052;-88
2022/09/06 12:14:44;;;;;;;9.52;4.80;;;28.80;87.10;;;;;;4899398;29;20539;-90
2022/09/06 12:17:23;;;;;;;10.82;5.28;;;29.00;86.00;;;;;;4914907;29;20404;-90
2022/09/06 12:20:06;;;;;;;7.85;5.15;;;29.00;86.40;;;;;;4905172;29;20064;-91
2022/09/06 12:22:35;;;;;;;6.68;5.32;;;29.10;87.00;;;;;;4899916;29;20040;-91
2022/09/06 12:25:35;;;;;;;10.05;5.05;;;29.10;87.20;;;;;;4903211;29;20122;-88
2022/09/06 12:28:08;;;;;;;7.70;5.03;;;29.10;86.00;;;;;;4950276;29;20122;-88
2022/09/06 12:30:43;;;;;;;11.25;5.53;;;29.20;86.90;;;;;;4949043;29;20159;-88
2022/09/06 12:33:26;;;;;;;6.90;4.95;;;29.30;85.90;;;;;;4946743;29;20063;-89
2022/09/06 12:36:18;;;;;;;7.03;4.47;;;29.40;85.10;;;;;;4950356;29;20031;-88
2022/09/06 12:39:01;;;;;;;9.20;5.85;;;29.50;86.00;;;;;;4950675;28;20055;-88
2022/09/06 12:41:37;;;;;;;7.60;5.10;;;29.60;85.10;;;;;;4949479;28;20051;-86
2022/09/06 12:44:13;;;;;;;10.48;4.53;;;29.60;84.60;;;;;;4951461;29;20047;-87
2022/09/06 12:46:48;;;;;;;14.18;5.35;;;29.60;84.90;;;;;;4951159;29;20039;-87
2022/09/06 12:49:19;;;;;;;9.45;4.75;;;29.70;85.70;;;;;;4950214;29;20053;-86
2022/09/06 12:51:52;;;;;;;7.05;4.22;;;29.70;85.50;;;;;;4948913;29;20525;-86
2022/09/06 12:54:27;;;;;;;8.27;4.63;;;29.70;85.00;;;;;;4949756;29;20698;-86
2022/09/06 12:57:20;;;;;;;8.05;4.63;;;29.70;84.20;;;;;;4931895;29;20307;-87
2022/09/06 12:59:50;;;;;;;6.20;3.90;;;29.70;83.00;;;;;;4950094;29;20118;-86
2022/09/06 13:02:21;;;;;;;11.38;3.75;;;29.70;83.00;;;;;;4949029;29;20407;-86
2022/09/06 13:05:05;;;;;;;7.70;4.07;;;29.70;83.70;;;;;;4948928;29;20131;-86
2022/09/06 13:07:34;;;;;;;8.75;3.90;;;29.80;83.90;;;;;;4951523;28;20035;-86
2022/09/06 13:10:03;;;;;;;8.43;3.55;;;29.80;83.80;;;;;;4952075;29;20047;-87
2022/09/06 13:12:44;;;;;;;5.63;3.55;;;29.90;82.90;;;;;;4935672;29;20051;-86
2022/09/06 13:15:20;;;;;;;7.68;3.15;;;29.90;82.50;;;;;;4916763;29;20051;-86
2022/09/06 13:17:49;;;;;;;6.15;2.80;;;30.10;82.30;;;;;;4936343;29;20403;-86
2022/09/06 13:20:35;;;;;;;6.15;3.10;;;30.10;82.40;;;;;;4953463;29;20054;-86
2022/09/06 13:23:08;;;;;;;6.75;2.80;;;30.20;80.60;;;;;;4951639;29;20082;-86
2022/09/06 13:25:51;;;;;;;7.43;3.08;;;30.30;81.60;;;;;;4936398;29;20047;-86
2022/09/06 13:28:31;;;;;;;5.40;2.78;;;30.30;80.50;;;;;;4935104;29;20052;-86